Time;durP1;ratioP1;P1;durP2;ratioP2;P2;SDS_P1;SDS_P2;PMS_P1;PMS_P2;Temp;Humidity;BMP_temperature;BMP_pressure;BME280_temperature;BME280_humidity;BME280_pressure;Samples;Min_cycle;Max_cycle;Signal;HPM_P1;HPM_P2
2022/08/31 00:06:20;;;;;;;;;7.00;5.50;;;;;25.56;39.42;101353.16;5035961;28;45347;-43
2022/08/31 00:08:45;;;;;;;;;6.75;5.75;;;;;25.56;39.10;101351.34;5035899;28;46559;-41
2022/08/31 00:11:13;;;;;;;;;6.00;6.00;;;;;25.55;39.44;101348.81;5035521;28;45329;-41
2022/08/31 00:13:42;;;;;;;;;5.00;5.00;;;;;25.55;39.20;101349.63;5036726;28;45339;-41
2022/08/31 00:16:10;;;;;;;;;8.00;7.00;;;;;25.53;39.09;101343.56;5036915;28;45478;-47
2022/08/31 00:18:35;;;;;;;;;6.00;6.00;;;;;25.54;38.96;101347.09;5036554;28;46148;-52
2022/08/31 00:21:01;;;;;;;;;5.00;5.00;;;;;25.54;39.28;101350.59;5035848;28;45445;-51
2022/08/31 00:23:27;;;;;;;;;7.00;4.00;;;;;25.54;39.28;101347.94;5034300;28;45248;-47
2022/08/31 00:25:52;;;;;;;;;5.75;5.75;;;;;25.53;39.25;101346.22;5035750;28;45256;-40
2022/08/31 00:28:18;;;;;;;;;6.00;5.00;;;;;25.54;39.02;101349.75;5035355;28;46598;-41
2022/08/31 00:30:43;;;;;;;;;5.50;5.50;;;;;25.54;38.92;101342.63;5035754;28;45504;-43
2022/08/31 00:33:10;;;;;;;;;6.50;5.00;;;;;25.54;38.86;101345.28;5036262;28;45380;-42
2022/08/31 00:35:40;;;;;;;;;4.50;3.25;;;;;25.52;39.11;101339.22;5036712;28;45452;-44
2022/08/31 00:38:07;;;;;;;;;6.00;6.00;;;;;25.53;38.66;101346.22;5036177;28;47219;-41
2022/08/31 00:40:33;;;;;;;;;6.00;6.00;;;;;25.52;38.61;101338.38;5035160;28;45300;-42
2022/08/31 00:42:59;;;;;;;;;5.00;3.25;;;;;25.45;38.96;101344.13;5035852;28;45414;-48
2022/08/31 00:45:25;;;;;;;;;6.50;6.50;;;;;25.42;39.14;101347.00;5035337;28;45347;-40
2022/08/31 00:47:51;;;;;;;;;7.00;6.00;;;;;25.40;38.39;101340.06;5035157;28;45433;-40
2022/08/31 00:50:18;;;;;;;;;5.00;5.00;;;;;25.37;38.51;101340.25;5034846;28;45531;-43
2022/08/31 00:52:49;;;;;;;;;5.25;5.00;;;;;25.31;38.99;101337.06;5035553;28;45478;-41
2022/08/31 00:55:19;;;;;;;;;6.00;5.25;;;;;25.27;38.60;101338.25;5035173;28;45558;-43
2022/08/31 00:57:50;;;;;;;;;7.00;5.75;;;;;25.25;38.58;101348.09;5035116;28;45709;-40
2022/08/31 01:00:20;;;;;;;;;7.00;7.00;;;;;25.23;38.57;101344.69;5034839;28;45263;-41
2022/08/31 01:02:46;;;;;;;;;5.00;5.00;;;;;25.20;38.96;101344.06;5035243;28;45381;-48
2022/08/31 01:05:12;;;;;;;;;7.50;6.00;;;;;25.15;38.69;101345.22;5035050;28;45477;-43
2022/08/31 01:07:39;;;;;;;;;7.25;5.00;;;;;25.12;38.84;101342.78;5034248;28;46193;-48
2022/08/31 01:10:07;;;;;;;;;7.00;4.00;;;;;25.13;38.58;101348.94;5035684;28;45347;-50
2022/08/31 01:12:33;;;;;;;;;4.75;4.50;;;;;25.10;38.71;101343.81;5034800;28;45435;-45
2022/08/31 01:15:01;;;;;;;;;5.50;4.50;;;;;25.09;38.71;101345.63;5035347;28;45901;-45
2022/08/31 01:17:27;;;;;;;;;4.75;4.75;;;;;25.07;39.05;101344.88;5034443;28;45617;-45
2022/08/31 01:20:45;;;;;;;;;4.00;4.00;;;;;25.07;39.20;101344.03;5034811;28;45197;-42
2022/08/31 01:23:28;;;;;;;;;3.00;3.00;;;;;25.05;38.74;101345.94;4992631;28;45393;-43
2022/08/31 01:25:57;;;;;;;;;5.00;5.00;;;;;25.02;38.62;101347.00;4993036;28;45381;-41
2022/08/31 01:28:22;;;;;;;;;4.00;4.00;;;;;25.00;39.14;101349.75;5021603;28;45626;-42
2022/08/31 01:31:08;;;;;;;;;4.75;4.00;;;;;25.00;39.21;101346.25;5034604;28;45394;-55
2022/08/31 01:33:36;;;;;;;;;7.00;5.25;;;;;24.99;38.71;101352.50;5034538;28;45335;-45
2022/08/31 01:36:01;;;;;;;;;4.50;4.25;;;;;24.99;39.03;101356.00;5034743;28;45237;-41
2022/08/31 01:38:28;;;;;;;;;4.50;4.25;;;;;24.96;38.63;101353.56;5033977;28;45277;-50
2022/08/31 01:40:56;;;;;;;;;4.50;3.75;;;;;24.94;39.23;101344.84;5033478;28;45270;-44
2022/08/31 01:43:23;;;;;;;;;4.00;4.00;;;;;24.92;38.92;101352.06;5034463;28;45449;-43
2022/08/31 01:45:49;;;;;;;;;4.00;4.00;;;;;24.92;38.99;101346.75;5034947;28;45586;-42
2022/08/31 01:48:15;;;;;;;;;4.50;4.50;;;;;24.91;38.89;101350.34;5047649;28;47309;-42
2022/08/31 01:50:41;;;;;;;;;8.00;5.25;;;;;24.89;38.90;101349.59;5034262;28;45720;-54
2022/08/31 01:53:06;;;;;;;;;6.00;4.00;;;;;24.89;38.76;101354.91;5035392;28;45347;-49
2022/08/31 01:55:31;;;;;;;;;4.25;4.25;;;;;24.87;39.20;101356.81;5032247;28;45217;-51
2022/08/31 01:57:58;;;;;;;;;5.00;5.00;;;;;24.85;39.23;101353.44;5033807;28;58011;-48
2022/08/31 02:00:26;;;;;;;;;4.00;4.00;;;;;24.83;38.92;101348.19;5034100;28;45264;-47
2022/08/31 02:02:52;;;;;;;;;6.00;4.25;;;;;24.82;38.86;101356.28;5033697;28;45481;-45
2022/08/31 02:05:18;;;;;;;;;5.25;4.00;;;;;24.81;39.43;101362.53;5034066;28;45428;-51
2022/08/31 02:07:43;;;;;;;;;5.50;4.00;;;;;24.80;39.38;101363.47;5033997;28;46594;-49
2022/08/31 02:10:09;;;;;;;;;5.00;5.00;;;;;24.79;39.50;101361.75;5033685;28;45461;-40
2022/08/31 02:12:34;;;;;;;;;4.00;4.00;;;;;24.80;39.52;101366.13;5035079;28;45354;-43
2022/08/31 02:15:00;;;;;;;;;7.25;5.00;;;;;24.77;38.95;101359.22;5034347;28;45341;-42
2022/08/31 02:17:25;;;;;;;;;8.50;5.00;;;;;24.74;39.55;101353.28;5033061;28;47121;-41
2022/08/31 02:19:50;;;;;;;;;6.75;4.00;;;;;24.71;39.03;101356.97;5033293;28;45429;-53
2022/08/31 02:22:16;;;;;;;;;6.25;5.00;;;;;24.70;39.15;101361.41;5033858;28;45347;-49
2022/08/31 02:24:41;;;;;;;;;4.50;4.50;;;;;24.68;39.72;101360.66;5033152;28;45639;-51
2022/08/31 02:27:06;;;;;;;;;4.50;4.50;;;;;24.67;39.31;101358.94;5034618;28;46448;-48
2022/08/31 02:29:32;;;;;;;;;5.75;2.75;;;;;24.64;39.09;101364.41;5032321;28;45439;-53
2022/08/31 02:31:57;;;;;;;;;5.75;4.50;;;;;24.65;39.75;101363.47;5033832;28;45489;-44
2022/08/31 02:34:23;;;;;;;;;6.00;4.25;;;;;24.63;39.18;101362.75;5032969;28;45529;-48
2022/08/31 02:36:48;;;;;;;;;5.00;4.50;;;;;24.63;39.25;101364.53;5033586;28;45600;-47
2022/08/31 02:39:13;;;;;;;;;4.25;4.25;;;;;24.60;39.22;101372.66;5032870;28;45354;-52
2022/08/31 02:41:39;;;;;;;;;3.00;3.00;;;;;24.56;39.70;101372.03;5034250;28;45262;-42
2022/08/31 02:44:05;;;;;;;;;4.00;4.00;;;;;24.55;39.22;101375.63;5034729;28;45231;-41
2022/08/31 02:46:30;;;;;;;;;8.00;5.00;;;;;24.53;39.63;101366.91;5031770;28;46738;-41
2022/08/31 02:48:56;;;;;;;;;4.00;4.00;;;;;24.55;39.50;101370.31;5032794;28;45494;-46
2022/08/31 02:51:21;;;;;;;;;4.00;4.00;;;;;24.52;39.72;101373.19;5033228;28;45289;-41
2022/08/31 02:53:46;;;;;;;;;3.25;3.25;;;;;24.51;39.19;101374.13;5032835;28;45544;-46
2022/08/31 02:56:13;;;;;;;;;4.25;4.25;;;;;24.48;39.58;101375.16;5032883;28;46158;-43
2022/08/31 02:58:39;;;;;;;;;5.00;4.75;;;;;24.49;39.41;101376.03;5034158;28;45835;-46
2022/08/31 03:01:04;;;;;;;;;5.00;5.00;;;;;24.49;39.19;101370.72;5034335;28;45302;-47
2022/08/31 03:03:30;;;;;;;;;6.00;6.00;;;;;24.47;39.40;101375.28;5031331;28;45565;-42
2022/08/31 03:05:55;;;;;;;;;5.50;4.50;;;;;24.45;39.24;101371.84;5033080;28;45612;-40
2022/08/31 03:08:20;;;;;;;;;5.50;4.25;;;;;24.43;39.38;101377.25;5032136;28;46817;-42
2022/08/31 03:10:46;;;;;;;;;3.50;3.50;;;;;24.41;39.45;101378.31;5032994;28;45326;-56
2022/08/31 03:13:11;;;;;;;;;4.00;4.00;;;;;24.39;39.63;101371.31;5031886;28;45271;-50
2022/08/31 03:15:37;;;;;;;;;4.75;3.25;;;;;24.37;39.77;101373.22;5033850;28;46138;-42
2022/08/31 03:18:02;;;;;;;;;7.00;4.00;;;;;24.36;39.77;101382.09;5031118;28;45359;-43
2022/08/31 03:20:28;;;;;;;;;4.00;4.00;;;;;24.32;39.94;101385.03;5031740;28;45311;-43
2022/08/31 03:22:54;;;;;;;;;6.75;4.00;;;;;24.31;39.60;101376.22;5033374;28;45267;-51
2022/08/31 03:25:20;;;;;;;;;6.25;4.50;;;;;24.31;39.81;101384.19;5031729;28;45842;-54
2022/08/31 03:27:46;;;;;;;;;6.50;4.50;;;;;24.30;39.69;101387.81;5032968;28;45732;-55
2022/08/31 03:30:15;;;;;;;;;4.50;4.00;;;;;24.29;39.38;101394.03;5031844;28;45295;-55
2022/08/31 03:32:40;;;;;;;;;3.50;3.00;;;;;24.31;39.79;101393.94;5032418;28;45378;-53
2022/08/31 03:35:07;;;;;;;;;5.00;3.25;;;;;24.29;39.44;101386.09;5033631;28;46054;-55
2022/08/31 03:37:33;;;;;;;;;5.00;5.00;;;;;24.28;39.96;101384.38;5032530;28;45644;-53
2022/08/31 03:39:58;;;;;;;;;5.00;4.25;;;;;24.28;39.54;101389.69;5032140;28;45245;-51
2022/08/31 03:42:24;;;;;;;;;5.50;5.00;;;;;24.27;39.63;101395.06;5032818;28;45635;-55
2022/08/31 03:44:50;;;;;;;;;6.00;5.00;;;;;24.23;39.85;101394.41;5032695;28;45525;-47
2022/08/31 03:47:15;;;;;;;;;5.00;5.00;;;;;24.21;39.54;101391.00;5031453;28;53498;-51
2022/08/31 03:49:41;;;;;;;;;3.00;3.00;;;;;24.17;39.18;101389.50;5032610;28;45545;-45
2022/08/31 03:52:07;;;;;;;;;4.50;4.50;;;;;24.18;39.36;101393.84;5033668;28;45606;-53
2022/08/31 03:54:32;;;;;;;;;3.00;3.00;;;;;24.18;39.49;101401.81;5031499;28;45548;-45
2022/08/31 03:56:57;;;;;;;;;4.50;4.00;;;;;24.19;39.43;101395.56;5032628;28;45349;-46
2022/08/31 03:59:23;;;;;;;;;3.25;3.25;;;;;24.18;39.52;101397.34;5032504;28;45342;-44
2022/08/31 04:01:48;;;;;;;;;5.50;5.50;;;;;24.16;39.79;101401.88;5031905;28;45492;-50
2022/08/31 04:04:14;;;;;;;;;7.00;6.00;;;;;24.14;39.39;101403.81;5032466;28;45688;-43
2022/08/31 04:06:41;;;;;;;;;5.75;4.50;;;;;24.12;39.61;101396.88;5032515;28;45351;-44
2022/08/31 04:09:06;;;;;;;;;4.00;3.00;;;;;24.11;39.36;101395.16;5032681;28;45422;-45
2022/08/31 04:11:32;;;;;;;;;4.75;3.50;;;;;24.07;39.64;101387.44;5032453;28;45549;-48
2022/08/31 04:13:57;;;;;;;;;4.75;4.25;;;;;24.07;39.55;101392.72;5032252;28;45470;-41
2022/08/31 04:16:25;;;;;;;;;5.75;5.00;;;;;24.05;39.41;101402.56;5031573;28;45271;-41
2022/08/31 04:18:51;;;;;;;;;4.00;4.00;;;;;24.05;40.32;101394.63;5031174;28;45366;-49
2022/08/31 04:21:24;;;;;;;;;6.00;4.25;;;;;24.03;39.42;101399.16;5030960;28;45669;-41
2022/08/31 04:23:51;;;;;;;;;6.50;3.00;;;;;24.02;39.94;101405.38;5031567;28;46218;-44
2022/08/31 04:26:18;;;;;;;;;4.75;4.00;;;;;24.00;39.93;101396.69;5031783;28;45255;-43
2022/08/31 04:28:44;;;;;;;;;7.00;5.50;;;;;23.99;39.67;101396.78;5032568;28;45404;-43
2022/08/31 04:31:09;;;;;;;;;5.75;4.75;;;;;24.00;39.87;101406.44;5031554;28;45389;-46
2022/08/31 04:33:36;;;;;;;;;3.00;3.00;;;;;24.00;39.94;101401.97;5032750;28;45360;-50
2022/08/31 04:36:05;;;;;;;;;3.25;3.25;;;;;23.99;40.03;101408.22;5032135;28;45339;-42
2022/08/31 04:38:31;;;;;;;;;4.50;4.00;;;;;23.97;39.62;101407.47;5031339;28;45437;-42
2022/08/31 04:40:57;;;;;;;;;4.00;4.00;;;;;24.00;39.80;101399.34;5032262;28;45481;-44
2022/08/31 04:43:23;;;;;;;;;4.50;4.00;;;;;24.00;39.94;101409.09;5033418;28;46392;-49
2022/08/31 04:45:50;;;;;;;;;6.00;4.50;;;;;23.93;39.71;101400.63;5034648;28;46411;-40
2022/08/31 04:48:15;;;;;;;;;3.25;2.75;;;;;23.93;39.75;101403.28;5035173;28;45410;-49
2022/08/31 04:50:40;;;;;;;;;4.00;3.00;;;;;23.96;40.03;101400.47;5035265;28;45545;-41
2022/08/31 04:53:06;;;;;;;;;4.00;4.00;;;;;24.00;39.95;101395.84;5035242;28;45337;-40
2022/08/31 04:55:31;;;;;;;;;3.00;3.00;;;;;24.01;39.93;101398.38;5035049;28;45307;-43
2022/08/31 04:57:57;;;;;;;;;4.00;4.00;;;;;24.02;39.64;101393.97;5034029;28;45256;-45
2022/08/31 05:00:23;;;;;;;;;4.00;4.00;;;;;24.00;39.64;101394.03;5035191;28;45433;-41
2022/08/31 05:02:48;;;;;;;;;5.00;3.25;;;;;24.00;40.00;101390.56;5034565;28;46167;-49
2022/08/31 05:05:13;;;;;;;;;4.00;4.00;;;;;24.00;39.82;101395.84;5034927;28;45289;-44
2022/08/31 05:07:39;;;;;;;;;4.00;4.00;;;;;24.01;39.74;101401.03;5035235;28;45336;-42
2022/08/31 05:10:05;;;;;;;;;3.25;3.25;;;;;24.03;39.83;101407.09;5036123;28;45169;-42
2022/08/31 05:12:30;;;;;;;;;3.50;3.50;;;;;24.04;39.97;101410.56;5034669;28;46374;-41
2022/08/31 05:14:55;;;;;;;;;4.00;4.00;;;;;24.04;39.80;101411.44;5034902;28;45344;-43
2022/08/31 05:17:21;;;;;;;;;3.50;3.50;;;;;24.06;39.90;101409.56;5034018;28;45549;-45
2022/08/31 05:19:47;;;;;;;;;3.25;3.25;;;;;24.05;40.22;101410.50;5035208;28;45438;-41
2022/08/31 05:22:12;;;;;;;;;6.00;4.00;;;;;24.04;39.79;101403.50;5033699;28;46393;-40
2022/08/31 05:24:38;;;;;;;;;3.75;3.75;;;;;24.04;40.06;101402.63;5035447;28;45306;-43
2022/08/31 05:27:03;;;;;;;;;3.00;3.00;;;;;24.02;39.98;101410.69;5035007;28;45803;-40
2022/08/31 05:29:29;;;;;;;;;4.00;4.00;;;;;24.00;39.67;101404.63;5035014;28;45369;-52
2022/08/31 05:31:55;;;;;;;;;4.25;4.25;;;;;24.01;40.07;101414.28;5033746;28;45789;-40
2022/08/31 05:34:22;;;;;;;;;5.50;3.00;;;;;24.01;39.75;101413.44;5034357;28;45250;-41
2022/08/31 05:36:55;;;;;;;;;3.00;3.00;;;;;24.02;40.04;101405.38;5032755;28;45514;-46
2022/08/31 05:39:21;;;;;;;;;4.25;4.00;;;;;24.00;39.81;101409.91;5034684;28;45367;-41
2022/08/31 05:41:47;;;;;;;;;4.00;4.00;;;;;23.95;39.44;101409.38;5034441;28;46295;-44
2022/08/31 05:44:14;;;;;;;;;6.00;4.75;;;;;23.93;39.61;101405.94;5034350;28;45722;-48
2022/08/31 05:46:40;;;;;;;;;3.75;3.00;;;;;23.95;40.04;101409.38;5033830;28;45237;-40
2022/08/31 05:49:07;;;;;;;;;4.75;4.50;;;;;23.94;40.05;101410.28;5035619;28;45570;-45
2022/08/31 05:51:33;;;;;;;;;4.75;4.75;;;;;23.92;40.00;101405.06;5033476;28;45458;-43
2022/08/31 05:53:59;;;;;;;;;5.50;4.00;;;;;23.94;40.41;101404.97;5048770;28;46933;-44
2022/08/31 05:56:25;;;;;;;;;5.25;5.25;;;;;23.97;39.75;101406.63;5034173;28;45338;-42
2022/08/31 05:58:51;;;;;;;;;5.00;5.00;;;;;23.99;40.22;101405.56;5034389;28;45520;-40
2022/08/31 06:01:20;;;;;;;;;6.25;5.00;;;;;24.02;39.99;101399.25;5033098;28;46429;-41
2022/08/31 06:03:46;;;;;;;;;5.00;4.00;;;;;24.04;40.01;101402.63;5034180;28;45716;-43
2022/08/31 06:06:12;;;;;;;;;5.00;5.00;;;;;24.05;39.96;101405.22;5033593;28;45459;-41
2022/08/31 06:08:39;;;;;;;;;4.50;4.25;;;;;24.07;40.31;101410.41;5034841;28;45486;-41
2022/08/31 06:11:12;;;;;;;;;7.25;5.00;;;;;24.07;39.85;101418.34;5034757;28;46338;-43
2022/08/31 06:13:37;;;;;;;;;8.00;4.00;;;;;24.06;39.73;101412.22;5034911;28;45344;-42
2022/08/31 06:16:03;;;;;;;;;3.75;3.50;;;;;24.10;40.04;101412.88;5033380;28;45398;-51
2022/08/31 06:18:29;;;;;;;;;7.00;6.00;;;;;24.11;40.53;101411.06;5034130;28;45751;-41
2022/08/31 06:21:07;;;;;;;;;8.00;5.25;;;;;24.13;40.09;101409.16;5032344;28;46898;-45
2022/08/31 06:23:36;;;;;;;;;7.50;4.00;;;;;24.10;39.97;101415.53;5048050;28;45459;-42
2022/08/31 06:26:11;;;;;;;;;5.00;5.00;;;;;24.07;39.85;101415.69;5033748;28;45354;-42
2022/08/31 06:28:38;;;;;;;;;4.25;4.25;;;;;24.08;40.14;101412.97;5033697;28;45446;-44
2022/08/31 06:31:10;;;;;;;;;5.25;5.00;;;;;24.08;40.08;101415.63;5033484;28;46448;-40
2022/08/31 06:33:37;;;;;;;;;7.00;5.00;;;;;24.11;39.72;101416.34;5034376;28;45333;-47
2022/08/31 06:36:02;;;;;;;;;8.75;6.00;;;;;24.13;39.86;101417.97;5033198;28;45346;-40
2022/08/31 06:38:28;;;;;;;;;7.25;4.50;;;;;24.14;39.94;101409.09;5013814;28;45586;-42
2022/08/31 06:40:53;;;;;;;;;4.50;3.50;;;;;24.17;40.11;101419.47;5013556;28;45958;-40
2022/08/31 06:43:19;;;;;;;;;8.75;7.00;;;;;24.18;39.77;101420.34;5012276;28;45758;-54
2022/08/31 06:45:44;;;;;;;;;4.75;4.75;;;;;24.19;40.11;101411.47;5024960;28;45391;-41
2022/08/31 06:48:09;;;;;;;;;4.25;4.25;;;;;24.20;40.19;101415.78;5032264;28;45400;-40
2022/08/31 06:50:37;;;;;;;;;5.75;5.75;;;;;24.18;39.78;101423.84;5034134;28;46208;-49
2022/08/31 06:53:03;;;;;;;;;5.25;5.25;;;;;24.16;40.05;101422.22;5032529;28;45777;-53
2022/08/31 06:55:28;;;;;;;;;7.00;5.75;;;;;24.19;39.66;101427.34;5033384;28;45508;-52
2022/08/31 06:57:54;;;;;;;;;5.75;5.75;;;;;24.20;39.90;101429.03;5033753;28;45184;-52
2022/08/31 07:00:19;;;;;;;;;4.25;4.00;;;;;24.19;40.32;101433.47;5032260;28;46447;-44
2022/08/31 07:02:45;;;;;;;;;6.00;6.00;;;;;24.22;40.49;101435.09;5033311;28;45303;-43
2022/08/31 07:05:10;;;;;;;;;6.75;6.25;;;;;24.23;40.52;101434.13;5032902;28;45505;-42
2022/08/31 07:07:35;;;;;;;;;5.00;5.00;;;;;24.23;40.16;101434.13;5033430;28;45300;-42
2022/08/31 07:10:01;;;;;;;;;5.75;4.75;;;;;24.20;39.98;101429.03;5028886;28;45815;-41
2022/08/31 07:12:27;;;;;;;;;6.75;5.50;;;;;24.21;40.53;101428.09;5032144;28;45758;-44
2022/08/31 07:14:52;;;;;;;;;7.25;6.00;;;;;24.22;40.08;101429.78;5032263;28;45768;-41
2022/08/31 07:17:17;;;;;;;;;6.25;6.00;;;;;24.23;40.23;101428.84;5033028;28;45422;-46
2022/08/31 07:19:43;;;;;;;;;4.50;4.50;;;;;24.23;40.72;101427.06;5032921;28;45384;-44
2022/08/31 07:22:08;;;;;;;;;6.25;6.25;;;;;24.23;40.26;101428.84;5032910;28;45412;-40
2022/08/31 07:24:35;;;;;;;;;5.75;5.75;;;;;24.20;40.62;101426.38;5033533;28;45875;-51
2022/08/31 07:27:08;;;;;;;;;5.50;5.50;;;;;24.23;40.78;101426.19;5033230;28;45611;-49
2022/08/31 07:29:39;;;;;;;;;6.50;5.75;;;;;24.23;40.34;101416.47;5033069;28;46706;-47
2022/08/31 07:32:06;;;;;;;;;6.75;6.75;;;;;24.25;40.57;101426.97;5033356;28;45723;-50
2022/08/31 07:34:32;;;;;;;;;8.50;6.00;;;;;24.22;40.53;101416.53;5031738;28;45436;-49
2022/08/31 07:42:32;;;;;;;;;3.75;3.75;;;;;24.26;40.29;101427.78;5032443;28;45326;-48
2022/08/31 07:44:59;;;;;;;;;6.25;6.25;;;;;24.28;40.50;101429.41;5032038;28;45320;-51
2022/08/31 07:47:27;;;;;;;;;8.25;6.75;;;;;24.29;40.89;101425.84;5032633;28;45596;-43
2022/08/31 07:49:55;;;;;;;;;5.00;5.00;;;;;24.31;40.45;101426.56;5031153;28;47095;-42
2022/08/31 07:52:26;;;;;;;;;6.00;6.00;;;;;24.34;40.50;101430.84;5031256;28;45403;-40
2022/08/31 07:54:55;;;;;;;;;7.75;6.00;;;;;24.36;40.32;101423.66;5032697;28;45473;-40
2022/08/31 07:57:24;;;;;;;;;5.00;5.00;;;;;24.39;40.13;101432.25;5032638;28;45351;-48
2022/08/31 07:59:59;;;;;;;;;6.25;5.00;;;;;24.41;40.70;101432.16;5031692;28;46163;-45
2022/08/31 08:02:25;;;;;;;;;6.00;5.50;;;;;24.41;40.65;101426.00;5032398;28;45835;-46
2022/08/31 08:04:52;;;;;;;;;7.00;7.00;;;;;24.44;40.51;101436.41;5032219;28;45280;-43
2022/08/31 08:07:17;;;;;;;;;7.00;7.00;;;;;24.42;40.34;101428.56;5031980;28;45405;-47
2022/08/31 08:09:42;;;;;;;;;8.75;7.25;;;;;24.42;40.07;101428.56;5032334;28;46330;-53
2022/08/31 08:12:08;;;;;;;;;7.00;6.75;;;;;24.42;40.44;101422.41;5033181;28;45334;-53
2022/08/31 08:14:36;;;;;;;;;7.00;5.75;;;;;24.42;40.71;101425.91;5031035;28;45707;-45
2022/08/31 08:17:05;;;;;;;;;6.50;6.50;;;;;24.43;40.88;101416.16;5033745;28;45639;-47
2022/08/31 08:19:32;;;;;;;;;7.00;5.75;;;;;24.45;40.89;101406.31;5034063;28;48242;-53
2022/08/31 08:21:58;;;;;;;;;7.50;5.50;;;;;24.45;40.51;101411.59;5034938;28;45864;-50
2022/08/31 08:24:25;;;;;;;;;5.00;5.00;;;;;24.46;40.35;101408.88;5035402;28;45441;-55
2022/08/31 08:26:51;;;;;;;;;11.00;7.50;;;;;24.48;40.80;101403.47;5035964;28;45385;-44
2022/08/31 08:29:18;;;;;;;;;10.00;7.50;;;;;24.50;40.58;101404.22;5034537;28;47208;-46
2022/08/31 08:31:50;;;;;;;;;7.00;7.00;;;;;24.52;40.71;101402.34;5035425;28;45738;-41
2022/08/31 08:34:18;;;;;;;;;6.75;6.00;;;;;24.57;40.97;101402.03;5035217;28;45390;-40
2022/08/31 11:00:50;;;;;;;;;8.75;8.00;;;;;25.17;41.16;101313.28;5012216;28;45416;-53
2022/08/31 11:03:39;;;;;;;;;8.50;8.50;;;;;25.19;41.14;101316.66;5012735;28;45378;-53
2022/08/31 11:06:20;;;;;;;;;8.75;7.75;;;;;25.23;41.32;101320.81;5013261;28;45455;-54
2022/08/31 11:09:06;;;;;;;;;7.75;7.25;;;;;25.24;40.93;101314.56;5013402;28;45578;-48
2022/08/31 11:11:41;;;;;;;;;11.00;9.50;;;;;25.28;41.25;101309.91;5011406;28;45443;-50
2022/08/31 11:14:52;;;;;;;;;11.00;10.00;;;;;25.28;40.92;101316.06;5013033;28;46090;-49
2022/08/31 11:17:20;;;;;;;;;9.00;9.00;;;;;25.29;41.08;101317.78;4951410;28;45309;-57
2022/08/31 11:20:10;;;;;;;;;9.25;7.75;;;;;25.29;41.31;101315.13;5001370;28;45377;-50
2022/08/31 11:23:04;;;;;;;;;8.50;8.25;;;;;25.30;40.82;101308.00;5012517;28;45340;-53
2022/08/31 11:26:05;;;;;;;;;7.50;7.50;;;;;25.30;40.90;101308.81;5012377;28;45280;-53
2022/08/31 11:29:00;;;;;;;;;13.00;10.25;;;;;25.30;40.70;101308.81;5012388;28;45332;-58
2022/08/31 11:31:29;;;;;;;;;12.25;10.50;;;;;25.31;40.91;101309.69;4976611;28;45404;-55
2022/08/31 11:34:26;;;;;;;;;9.00;8.75;;;;;25.32;41.17;101308.75;5011948;28;47659;-48
2022/08/31 11:36:59;;;;;;;;;9.00;8.00;;;;;25.34;40.58;101303.31;5012687;28;45727;-47
2022/08/31 11:39:43;;;;;;;;;11.75;10.00;;;;;25.34;40.76;101300.66;5013161;28;45347;-54
2022/08/31 11:42:12;;;;;;;;;13.00;13.00;;;;;25.35;41.24;101295.28;5012709;28;45579;-50
2022/08/31 11:44:40;;;;;;;;;12.00;10.00;;;;;25.36;40.50;101302.25;5012373;28;46196;-49
2022/08/31 11:47:07;;;;;;;;;11.00;10.00;;;;;25.37;40.73;101295.16;5011997;28;45896;-53
2022/08/31 11:49:54;;;;;;;;;10.25;9.25;;;;;25.39;40.79;101290.59;5012211;28;45248;-50
2022/08/31 11:52:42;;;;;;;;;7.75;6.75;;;;;25.38;40.56;101284.44;5013736;28;45430;-48
2022/08/31 11:55:17;;;;;;;;;10.75;8.25;;;;;25.39;40.91;101285.28;5015594;28;47310;-49
2022/08/31 11:58:08;;;;;;;;;9.50;9.50;;;;;25.40;40.72;101287.00;5015369;28;45818;-53
2022/08/31 12:00:57;;;;;;;;;10.25;10.00;;;;;25.41;40.37;101288.72;5015878;28;45566;-49
2022/08/31 12:03:51;;;;;;;;;8.25;8.25;;;;;25.40;41.09;101282.56;5018681;28;45458;-48
2022/08/31 12:06:23;;;;;;;;;11.00;11.00;;;;;25.41;40.48;101278.94;5033763;28;47146;-48
2022/08/31 12:08:53;;;;;;;;;9.00;9.00;;;;;25.42;40.74;101287.75;5035551;28;45734;-50
2022/08/31 12:11:28;;;;;;;;;8.25;8.25;;;;;25.41;40.46;101275.47;5034412;28;45605;-50
2022/08/31 12:14:00;;;;;;;;;10.00;10.00;;;;;25.42;40.55;101279.78;5035802;28;45465;-48
2022/08/31 12:16:45;;;;;;;;;10.00;10.00;;;;;25.42;40.54;101266.50;5036126;28;45412;-49
2022/08/31 12:26:00;;;;;;;;;10.25;9.00;;;;;25.43;40.70;101266.44;5035101;28;45456;-58
2022/08/31 12:29:07;;;;;;;;;9.50;9.50;;;;;25.45;40.21;101266.31;5015820;28;45569;-48
2022/08/31 12:31:36;;;;;;;;;9.75;8.50;;;;;25.46;40.39;101254.75;5014792;28;45467;-54
2022/08/31 12:34:11;;;;;;;;;9.50;8.50;;;;;25.45;40.32;101253.91;5026003;28;45433;-47
2022/08/31 12:36:37;;;;;;;;;9.25;9.00;;;;;25.47;40.45;101267.06;5034171;28;45559;-52
2022/08/31 12:39:19;;;;;;;;;10.00;10.00;;;;;25.46;40.64;101268.00;5034989;28;45520;-49
2022/08/31 12:42:03;;;;;;;;;10.00;9.50;;;;;25.46;40.07;101260.06;5034174;28;45350;-52
2022/08/31 12:44:31;;;;;;;;;11.00;8.50;;;;;25.47;40.53;101262.59;5035549;28;45500;-52
2022/08/31 12:47:23;;;;;;;;;11.75;11.75;;;;;25.47;40.14;101259.94;5034806;28;45542;-48
2022/08/31 12:50:09;;;;;;;;;8.00;8.00;;;;;25.49;40.39;101259.84;5031005;28;47307;-60
2022/08/31 12:53:06;;;;;;;;;11.25;10.25;;;;;25.50;40.43;101245.63;5034510;28;45824;-48
2022/08/31 12:55:39;;;;;;;;;11.00;10.00;;;;;25.49;40.30;101249.22;5034799;28;45378;-45
2022/08/31 12:58:36;;;;;;;;;10.75;10.75;;;;;25.50;40.69;101256.25;5035137;28;45380;-52
2022/08/31 13:01:12;;;;;;;;;11.75;10.75;;;;;25.52;40.41;101254.28;5035189;28;45587;-49
2022/08/31 13:03:45;;;;;;;;;10.75;8.50;;;;;25.54;40.11;101248.91;5033921;28;45820;-57
2022/08/31 13:06:15;;;;;;;;;10.25;10.25;;;;;25.54;40.15;101241.78;5034703;28;45263;-46
2022/08/31 13:08:47;;;;;;;;;10.00;9.50;;;;;25.54;39.97;101236.47;5034724;28;45357;-50
2022/08/31 13:11:13;;;;;;;;;11.00;9.00;;;;;25.55;40.23;101238.16;5033545;28;46536;-48
2022/08/31 13:13:39;;;;;;;;;11.00;10.25;;;;;25.56;40.10;101229.25;5034544;28;45345;-50
2022/08/31 13:16:06;;;;;;;;;10.75;9.25;;;;;25.57;39.84;101230.13;5033427;28;45351;-51
2022/08/31 13:18:34;;;;;;;;;11.75;9.75;;;;;25.58;39.62;101234.44;5033068;28;45626;-48
2022/08/31 13:21:04;;;;;;;;;10.00;10.00;;;;;25.58;40.20;101237.09;5035103;28;46250;-52
2022/08/31 13:23:41;;;;;;;;;14.50;13.00;;;;;25.60;39.84;101235.19;5033781;28;45250;-57
2022/08/31 13:26:19;;;;;;;;;11.25;10.75;;;;;25.59;40.20;101234.34;5034011;28;45847;-50
2022/08/31 13:28:53;;;;;;;;;11.25;11.25;;;;;25.60;40.30;101236.06;5034675;28;45438;-58
2022/08/31 13:31:25;;;;;;;;;11.00;9.75;;;;;25.60;39.56;101235.19;5033877;28;46550;-55
2022/08/31 13:33:55;;;;;;;;;12.50;12.50;;;;;25.60;39.90;101233.41;5033490;28;45903;-54
2022/08/31 13:36:33;;;;;;;;;11.00;10.25;;;;;25.61;40.13;101227.13;5033914;28;45698;-57
2022/08/31 13:39:26;;;;;;;;;12.50;12.50;;;;;25.60;39.71;101225.44;5035310;28;45303;-59
2022/08/31 13:42:27;;;;;;;;;11.00;11.00;;;;;25.61;39.83;101221.81;5033099;28;46190;-52
2022/08/31 13:44:59;;;;;;;;;13.00;11.75;;;;;25.61;39.76;101221.81;5033872;28;45405;-52
2022/08/31 13:47:29;;;;;;;;;11.75;10.75;;;;;25.60;39.40;101222.78;5033122;28;45411;-48
2022/08/31 13:50:20;;;;;;;;;13.25;11.50;;;;;25.61;39.30;101221.81;5034162;28;45502;-53
2022/08/31 13:52:54;;;;;;;;;12.25;12.25;;;;;25.62;39.75;101223.53;5005007;28;46549;-44
2022/08/31 13:55:32;;;;;;;;;12.75;12.00;;;;;25.62;39.03;101226.19;5032884;28;45430;-50
2022/08/31 13:58:00;;;;;;;;;13.00;12.00;;;;;25.62;39.26;101223.53;5034054;28;45275;-54
2022/08/31 14:00:37;;;;;;;;;12.50;12.00;;;;;25.63;39.75;101219.88;5033665;28;45636;-48
2022/08/31 14:03:31;;;;;;;;;14.00;13.50;;;;;25.60;39.44;101206.84;5033653;28;46465;-45
2022/08/31 14:06:15;;;;;;;;;13.00;13.00;;;;;25.62;39.71;101218.22;5031901;28;47195;-48
2022/08/31 14:08:50;;;;;;;;;13.75;13.00;;;;;25.61;39.74;101221.81;5033948;28;45382;-55
2022/08/31 14:11:16;;;;;;;;;12.50;12.50;;;;;25.62;39.37;101218.22;5032568;28;45383;-46
2022/08/31 14:13:49;;;;;;;;;13.50;11.75;;;;;25.63;39.07;101219.88;5033639;28;46284;-49
2022/08/31 14:16:34;;;;;;;;;14.00;12.00;;;;;25.65;39.05;101216.28;5032804;28;46046;-53